CheckWX is a tool to help pilots better visualize weather data.  It is not intended as a substitute for an official pre-flight weather briefing.

08:09:48 UTC

KJDD METAR
Wood County Airport
Mineola/Quitman, Texas, USA
Current

35 mins ago

KJDD 230735Z AUTO 14004KT 10SM CLR 19/15 A3003 RMK AO2
Observed
Apr-23 @ 07:35 UTC
Wind
  • 140° at 4 KTS
Visibility
10 SM
Flight Rules
VFR
Cloud Levels
  • Clear skies
Temperature
19°C / 66°F
Dewpoint
15°C / 59°F
Humidity
78%
Altimeter
30.03" Hg
Pressure
1016.92 hPa
Previous

55 mins ago

KJDD 230715Z AUTO 16004KT 10SM CLR 19/15 A3003 RMK AO2 LTG DSNT W
Observed
Apr-23 @ 07:15 UTC
Wind
  • 160° at 4 KTS
Visibility
10 SM
Flight Rules
VFR
Cloud Levels
  • Clear skies
Temperature
19°C / 66°F
Dewpoint
15°C / 59°F
Humidity
78%
Altimeter
30.03" Hg
Pressure
1016.92 hPa
Previous

1 hour ago

KJDD 230655Z AUTO 17004KT 10SM CLR 19/15 A3004 RMK AO2
Observed
Apr-23 @ 06:55 UTC
Wind
  • 170° at 4 KTS
Visibility
10 SM
Flight Rules
VFR
Cloud Levels
  • Clear skies
Temperature
19°C / 66°F
Dewpoint
15°C / 59°F
Humidity
78%
Altimeter
30.04" Hg
Pressure
1017.32 hPa